createdAt,value
2018-05-17T00:00:16.888Z,3.33
2018-05-17T00:02:44.465Z,3.47
2018-05-17T00:05:11.951Z,3.60
2018-05-17T00:07:39.425Z,3.87
2018-05-17T00:10:06.924Z,3.60
2018-05-17T00:12:35.261Z,3.20
2018-05-17T00:15:02.832Z,3.60
2018-05-17T00:17:30.302Z,3.47
2018-05-17T00:19:57.780Z,3.70
2018-05-17T00:22:25.397Z,3.80
2018-05-17T00:24:52.845Z,3.67
2018-05-17T00:27:20.320Z,3.30
2018-05-17T00:29:47.796Z,3.53
2018-05-17T00:32:15.295Z,3.43
2018-05-17T00:34:43.536Z,3.20
2018-05-17T00:37:11.092Z,3.50
2018-05-17T00:39:38.678Z,3.70
2018-05-17T00:42:06.158Z,3.40
2018-05-17T00:44:33.706Z,3.50
2018-05-17T00:47:01.270Z,3.33
2018-05-17T00:49:28.748Z,2.80
2018-05-17T00:51:56.213Z,3.43
2018-05-17T00:54:23.689Z,3.20
2018-05-17T00:56:51.165Z,3.23
2018-05-17T00:59:18.648Z,3.13
2018-05-17T01:01:46.133Z,3.33
2018-05-17T01:04:13.617Z,3.10
2018-05-17T01:06:41.152Z,3.20
2018-05-17T01:09:08.721Z,3.43
2018-05-17T01:11:36.277Z,3.57
2018-05-17T01:14:03.745Z,3.20
2018-05-17T01:16:31.327Z,3.50
2018-05-17T01:18:58.897Z,3.30
2018-05-17T01:21:26.465Z,3.33
2018-05-17T01:23:54.036Z,3.50
2018-05-17T01:26:21.621Z,3.10
2018-05-17T01:28:49.100Z,3.07
2018-05-17T01:31:16.569Z,3.20
2018-05-17T01:33:44.107Z,3.23
2018-05-17T01:36:12.339Z,3.10
2018-05-17T01:38:39.916Z,3.70
2018-05-17T01:41:07.457Z,4.00
2018-05-17T01:43:35.028Z,3.30
2018-05-17T01:46:02.596Z,3.20
2018-05-17T01:48:30.072Z,3.40
2018-05-17T01:50:57.544Z,3.00
2018-05-17T01:53:25.014Z,3.00
2018-05-17T01:55:52.702Z,3.10
2018-05-17T01:58:20.199Z,2.80
2018-05-17T02:00:47.755Z,3.37
2018-05-17T02:03:15.228Z,3.23
2018-05-17T02:05:42.693Z,3.00
2018-05-17T02:08:10.225Z,3.10
2018-05-17T02:10:38.471Z,2.93
2018-05-17T02:13:06.027Z,3.40
2018-05-17T02:15:33.578Z,3.13
2018-05-17T02:18:01.157Z,3.57
2018-05-17T02:20:28.624Z,3.40
2018-05-17T02:22:56.096Z,3.30
2018-05-17T02:25:23.660Z,3.73
2018-05-17T02:27:51.130Z,3.10
2018-05-17T02:30:18.596Z,3.37
2018-05-17T02:32:46.113Z,3.10
2018-05-17T02:35:13.595Z,3.43
2018-05-17T02:37:41.937Z,3.50
2018-05-17T02:40:09.418Z,3.23
2018-05-17T02:42:36.890Z,3.20
2018-05-17T02:45:04.364Z,3.37
2018-05-17T02:47:31.854Z,3.10
2018-05-17T02:49:59.328Z,3.40
2018-05-17T02:52:27.569Z,3.00
2018-05-17T02:54:55.070Z,3.30
2018-05-17T02:57:22.557Z,3.27
2018-05-17T02:59:50.021Z,3.57
2018-05-17T03:02:17.493Z,3.40
2018-05-17T03:04:44.987Z,3.47
2018-05-17T03:07:13.237Z,3.03
2018-05-17T03:09:40.726Z,3.40
2018-05-17T03:12:08.216Z,3.70
2018-05-17T03:14:35.764Z,3.40
2018-05-17T03:17:04.021Z,3.30
2018-05-17T03:19:31.581Z,3.40
2018-05-17T03:21:59.053Z,3.13
2018-05-17T03:24:26.621Z,3.20
2018-05-17T03:26:54.245Z,3.30
2018-05-17T03:29:21.771Z,2.90
2018-05-17T03:31:49.245Z,3.20
2018-05-17T03:34:16.720Z,3.50
2018-05-17T03:36:44.204Z,3.27
2018-05-17T03:39:11.707Z,2.87
2018-05-17T03:41:39.236Z,3.43
2018-05-17T03:44:06.723Z,3.20
2018-05-17T03:46:34.207Z,3.63
2018-05-17T03:49:01.680Z,3.00
2018-05-17T03:51:29.920Z,3.50
2018-05-17T03:53:57.401Z,3.50
2018-05-17T03:56:24.958Z,3.80
2018-05-17T03:58:52.432Z,3.00
2018-05-17T04:01:31.885Z,3.00
2018-05-17T04:04:11.327Z,3.17
2018-05-17T04:06:41.682Z,3.30
2018-05-17T04:09:09.285Z,3.20
2018-05-17T04:11:36.758Z,3.10
2018-05-17T04:14:04.299Z,3.17
2018-05-17T04:16:31.855Z,3.13
2018-05-17T04:18:59.428Z,3.57
2018-05-17T04:21:26.931Z,3.00
2018-05-17T04:23:55.192Z,3.27
2018-05-17T04:26:22.765Z,3.50
2018-05-17T04:28:50.257Z,3.47
2018-05-17T04:31:17.741Z,3.30
2018-05-17T04:33:46.820Z,3.60
2018-05-17T04:36:14.313Z,3.17
2018-05-17T04:38:41.788Z,3.07
2018-05-17T04:41:09.275Z,3.80
2018-05-17T04:43:37.516Z,3.20
2018-05-17T04:46:05.003Z,3.67
2018-05-17T04:48:32.554Z,3.30
2018-05-17T04:51:00.104Z,3.00
2018-05-17T04:53:27.583Z,3.50
2018-05-17T04:55:55.101Z,3.30
2018-05-17T04:58:22.644Z,3.00
2018-05-17T05:00:50.157Z,3.13
2018-05-17T05:03:17.681Z,3.50
2018-05-17T05:05:45.175Z,3.37
2018-05-17T05:08:12.656Z,2.90
2018-05-17T05:10:40.134Z,2.93
2018-05-17T05:13:07.612Z,3.17
2018-05-17T05:15:35.856Z,2.97
2018-05-17T05:18:03.329Z,3.50
2018-05-17T05:20:30.888Z,3.23
2018-05-17T05:22:58.358Z,2.97
2018-05-17T05:25:25.925Z,3.77
2018-05-17T05:27:53.404Z,3.47
2018-05-17T05:30:20.972Z,3.80
2018-05-17T05:32:48.474Z,3.23
2018-05-17T05:35:15.957Z,3.23
2018-05-17T05:37:43.505Z,3.17
2018-05-17T05:40:11.017Z,3.47
2018-05-17T05:42:38.531Z,3.50
2018-05-17T05:45:06.022Z,3.30
2018-05-17T05:47:33.509Z,3.50
2018-05-17T05:50:01.002Z,2.73
2018-05-17T05:52:28.480Z,3.50
2018-05-17T05:54:56.735Z,2.97
2018-05-17T05:57:24.202Z,3.37
2018-05-17T05:59:51.664Z,3.50
2018-05-17T06:02:19.265Z,3.70
2018-05-17T06:04:46.789Z,2.93
2018-05-17T06:07:14.361Z,3.37
2018-05-17T06:09:41.874Z,3.23
2018-05-17T06:12:09.657Z,2.90
2018-05-17T06:14:38.732Z,3.60
2018-05-17T06:17:06.329Z,3.60
2018-05-17T06:19:35.383Z,3.03
2018-05-17T06:22:02.876Z,3.63
2018-05-17T06:24:30.420Z,3.43
2018-05-17T06:26:57.908Z,3.00
2018-05-17T06:29:25.392Z,3.33
2018-05-17T06:31:52.883Z,2.83
2018-05-17T06:34:20.377Z,3.23
2018-05-17T06:36:47.896Z,3.50
2018-05-17T06:39:15.447Z,3.30
2018-05-17T06:41:42.959Z,3.33
2018-05-17T06:44:10.433Z,3.27
2018-05-17T06:46:38.004Z,3.27
2018-05-17T06:49:05.495Z,3.30
2018-05-17T06:51:33.038Z,3.00
2018-05-17T06:54:00.594Z,3.20
2018-05-17T06:56:28.249Z,3.57
2018-05-17T06:58:56.481Z,3.70
2018-05-17T07:01:24.036Z,3.03
2018-05-17T07:03:51.515Z,3.37
2018-05-17T07:06:19.007Z,3.27
2018-05-17T07:08:46.489Z,3.20
2018-05-17T07:11:14.756Z,3.60
2018-05-17T07:13:42.301Z,2.97
2018-05-17T07:16:09.790Z,3.47
2018-05-17T07:18:37.693Z,3.27
2018-05-17T07:21:05.663Z,3.40
2018-05-17T07:23:33.201Z,3.10
2018-05-17T07:26:00.689Z,3.10
2018-05-17T07:28:28.236Z,3.53
2018-05-17T07:30:55.705Z,3.77
2018-05-17T07:33:23.180Z,3.43
2018-05-17T07:35:50.764Z,3.27
2018-05-17T07:38:18.233Z,3.53
2018-05-17T07:40:45.727Z,3.53
2018-05-17T07:43:13.288Z,3.80
2018-05-17T07:45:40.870Z,3.33
2018-05-17T07:48:08.425Z,3.03
2018-05-17T07:50:35.944Z,3.20
2018-05-17T07:53:04.193Z,3.10
2018-05-17T07:55:31.748Z,2.90
2018-05-17T07:57:59.292Z,3.30
2018-05-17T08:00:26.861Z,3.43
2018-05-17T08:02:54.354Z,3.23
2018-05-17T08:05:21.828Z,3.30
2018-05-17T08:07:49.405Z,3.43
2018-05-17T08:10:17.060Z,3.80
2018-05-17T08:12:44.580Z,3.60
2018-05-17T08:15:12.053Z,2.93
2018-05-17T08:17:39.580Z,3.50
2018-05-17T08:20:07.068Z,3.27
2018-05-17T08:22:34.529Z,3.60
2018-05-17T08:25:02.097Z,3.57
2018-05-17T08:27:29.571Z,3.63
2018-05-17T08:29:57.123Z,3.70
2018-05-17T08:32:25.369Z,3.40
2018-05-17T08:34:52.860Z,3.13
2018-05-17T08:37:21.103Z,3.43
2018-05-17T08:39:48.566Z,3.40
2018-05-17T08:42:16.049Z,3.60
2018-05-17T08:44:43.542Z,3.40
2018-05-17T08:47:11.095Z,3.60
2018-05-17T08:49:38.601Z,3.37
2018-05-17T08:52:06.948Z,3.23
2018-05-17T08:54:34.501Z,3.50
2018-05-17T08:57:01.973Z,3.30
2018-05-17T08:59:29.448Z,4.23
2018-05-17T09:01:56.912Z,3.63
2018-05-17T09:04:24.382Z,3.90
2018-05-17T09:06:51.871Z,3.73
2018-05-17T09:09:19.445Z,3.23
2018-05-17T09:11:46.920Z,3.57
2018-05-17T09:14:14.444Z,3.50
2018-05-17T09:16:41.945Z,3.30
2018-05-17T09:19:09.454Z,3.40
2018-05-17T09:21:36.945Z,3.70
2018-05-17T09:24:04.449Z,4.10
2018-05-17T09:26:32.397Z,3.40
2018-05-17T09:29:00.739Z,3.30
2018-05-17T09:31:28.309Z,3.90
2018-05-17T09:33:55.792Z,3.40
2018-05-17T09:36:23.265Z,3.40
2018-05-17T09:38:50.804Z,3.60
2018-05-17T09:41:18.471Z,3.60
2018-05-17T09:43:45.949Z,3.93
2018-05-17T09:46:13.425Z,3.83
2018-05-17T09:48:41.013Z,3.40
2018-05-17T09:51:08.614Z,3.37
2018-05-17T09:53:37.080Z,3.47
2018-05-17T09:56:04.545Z,3.17
2018-05-17T09:58:32.107Z,3.23
2018-05-17T10:00:59.673Z,3.50
2018-05-17T10:03:27.251Z,3.00
2018-05-17T10:05:54.800Z,3.37
2018-05-17T10:08:23.026Z,3.77
2018-05-17T10:10:50.586Z,3.47
2018-05-17T10:13:18.057Z,3.50
2018-05-17T10:15:45.534Z,3.57
2018-05-17T10:18:13.019Z,3.50
2018-05-17T10:20:40.650Z,3.57
2018-05-17T10:23:08.364Z,3.27
2018-05-17T10:25:35.816Z,3.37
2018-05-17T10:28:03.281Z,3.40
2018-05-17T10:30:30.844Z,3.23
2018-05-17T10:32:58.316Z,3.20
2018-05-17T10:35:25.813Z,3.77
2018-05-17T10:37:53.309Z,3.50
2018-05-17T10:40:20.791Z,3.30
2018-05-17T10:42:48.308Z,3.47
2018-05-17T10:45:15.785Z,3.13
2018-05-17T10:47:43.263Z,3.70
2018-05-17T10:50:10.812Z,3.07
2018-05-17T10:52:38.404Z,3.53
2018-05-17T10:55:05.884Z,2.90
2018-05-17T10:57:33.420Z,3.13
2018-05-17T11:00:00.914Z,3.57
2018-05-17T11:02:28.472Z,3.50
2018-05-17T11:04:56.078Z,3.10
2018-05-17T11:07:25.151Z,3.23
2018-05-17T11:09:52.756Z,3.30
2018-05-17T11:12:20.315Z,3.70
2018-05-17T11:14:48.905Z,3.37
2018-05-17T11:17:16.424Z,3.63
2018-05-17T11:19:44.661Z,4.67
2018-05-17T11:22:12.148Z,4.13
2018-05-17T11:24:39.634Z,4.20
2018-05-17T11:27:07.975Z,3.97
2018-05-17T11:29:35.469Z,3.70
2018-05-17T11:32:03.037Z,3.57
2018-05-17T11:34:30.613Z,3.43
2018-05-17T11:36:58.102Z,3.57
2018-05-17T11:39:25.588Z,4.03
2018-05-17T11:41:53.165Z,5.17
2018-05-17T11:44:21.405Z,4.83
2018-05-17T11:46:48.894Z,5.30
2018-05-17T11:49:16.376Z,4.80
2018-05-17T11:51:43.923Z,5.97
2018-05-17T11:54:11.433Z,5.67
2018-05-17T11:56:39.801Z,5.17
2018-05-17T11:59:07.341Z,4.70
2018-05-17T12:01:34.948Z,4.97
2018-05-17T12:04:02.413Z,5.07
2018-05-17T12:06:30.015Z,5.17
2018-05-17T12:08:57.505Z,4.90
2018-05-17T12:11:25.116Z,4.50
2018-05-17T12:13:52.693Z,5.10
2018-05-17T12:16:20.349Z,4.40
2018-05-17T12:18:47.847Z,4.57
2018-05-17T12:21:15.401Z,5.03
2018-05-17T12:23:42.937Z,4.70
2018-05-17T12:26:11.208Z,5.37
2018-05-17T12:28:39.504Z,5.50
2018-05-17T12:31:07.774Z,5.33
2018-05-17T12:33:35.427Z,5.30
2018-05-17T12:36:02.893Z,5.17
2018-05-17T12:38:30.394Z,5.10
2018-05-17T12:40:58.628Z,4.77
2018-05-17T12:43:26.200Z,5.43
2018-05-17T12:45:53.676Z,5.00
2018-05-17T12:48:21.153Z,5.93
2018-05-17T12:50:48.768Z,5.30
2018-05-17T12:53:16.285Z,4.87
2018-05-17T12:55:43.763Z,5.07
2018-05-17T12:58:11.313Z,5.70
2018-05-17T13:00:38.880Z,4.53
2018-05-17T13:03:07.104Z,4.97
2018-05-17T13:05:34.593Z,4.83
2018-05-17T13:08:02.136Z,5.27
2018-05-17T13:10:29.712Z,5.23
2018-05-17T13:12:57.277Z,5.50
2018-05-17T13:15:25.786Z,5.50
2018-05-17T13:17:53.321Z,5.27
2018-05-17T13:20:20.810Z,5.20
2018-05-17T13:22:48.381Z,4.90
2018-05-17T13:25:15.960Z,5.67
2018-05-17T13:27:43.477Z,5.63
2018-05-17T13:30:12.518Z,5.10
2018-05-17T13:32:39.966Z,5.30
2018-05-17T13:35:08.235Z,5.37
2018-05-17T13:37:35.791Z,5.27
2018-05-17T13:40:03.258Z,5.97
2018-05-17T13:42:30.777Z,5.40
2018-05-17T13:44:58.276Z,5.90
2018-05-17T13:47:25.784Z,6.20
2018-05-17T13:49:53.274Z,5.90
2018-05-17T13:52:21.505Z,6.17
2018-05-17T13:54:49.014Z,7.13
2018-05-17T13:57:16.509Z,6.63
2018-05-17T13:59:44.766Z,5.93
2018-05-17T14:02:12.377Z,6.50
2018-05-17T14:04:39.885Z,6.10
2018-05-17T14:07:07.516Z,5.47
2018-05-17T14:09:35.813Z,6.10
2018-05-17T14:12:04.049Z,6.47
2018-05-17T14:14:31.569Z,6.60
2018-05-17T14:17:00.004Z,6.03
2018-05-17T14:19:27.593Z,5.73
2018-05-17T14:21:55.185Z,6.40
2018-05-17T14:24:22.680Z,6.00
2018-05-17T14:26:50.173Z,7.17
2018-05-17T14:29:17.694Z,6.50
2018-05-17T14:31:45.395Z,7.07
2018-05-17T14:34:12.834Z,6.13
2018-05-17T14:36:40.393Z,5.70
2018-05-17T14:39:08.018Z,5.87
2018-05-17T14:41:36.325Z,5.70
2018-05-17T14:44:03.982Z,5.97
2018-05-17T14:46:32.220Z,6.27
2018-05-17T14:48:59.761Z,6.23
2018-05-17T14:51:27.368Z,6.90
2018-05-17T14:53:56.466Z,5.83
2018-05-17T14:56:23.941Z,5.93
2018-05-17T14:58:51.443Z,6.00
2018-05-17T15:01:19.891Z,5.23
2018-05-17T15:03:47.395Z,5.90
2018-05-17T15:06:14.893Z,5.77
2018-05-17T15:08:42.535Z,5.47
2018-05-17T15:11:14.746Z,6.50
2018-05-17T15:13:37.395Z,5.70
2018-05-17T15:16:05.665Z,8.87
2018-05-17T15:18:33.921Z,6.50
2018-05-17T15:21:01.454Z,5.60
2018-05-17T15:23:28.948Z,6.17
2018-05-17T15:25:56.662Z,6.27
2018-05-17T15:28:24.197Z,5.60
2018-05-17T15:30:51.726Z,8.17
2018-05-17T15:33:19.989Z,6.27
2018-05-17T15:35:47.491Z,5.73
2018-05-17T15:38:15.733Z,6.47
2018-05-17T15:40:43.288Z,5.70
2018-05-17T15:43:10.886Z,5.37
2018-05-17T15:45:38.371Z,5.70
2018-05-17T15:48:05.890Z,5.23
2018-05-17T15:50:33.385Z,5.13
2018-05-17T15:53:00.865Z,5.50
2018-05-17T15:55:28.366Z,5.30
2018-05-17T15:57:55.861Z,5.30
2018-05-17T16:00:24.141Z,5.33
2018-05-17T16:02:52.463Z,5.67
2018-05-17T16:05:19.973Z,5.40
2018-05-17T16:07:48.341Z,5.43
2018-05-17T16:10:15.934Z,5.97
2018-05-17T16:12:44.220Z,5.47
2018-05-17T16:15:11.832Z,5.00
2018-05-17T16:17:39.281Z,4.93
2018-05-17T16:20:06.758Z,4.80
2018-05-17T16:22:35.097Z,5.63
2018-05-17T16:25:02.674Z,19.23
2018-05-17T16:27:30.155Z,5.10
2018-05-17T16:29:57.632Z,4.90
2018-05-17T16:32:25.200Z,5.07
2018-05-17T16:34:52.752Z,5.10
2018-05-17T16:37:20.244Z,4.67
2018-05-17T16:39:47.747Z,5.30
2018-05-17T16:42:16.108Z,5.10
2018-05-17T16:44:43.700Z,4.80
2018-05-17T16:47:11.173Z,5.07
2018-05-17T16:49:38.653Z,5.07
2018-05-17T16:52:07.070Z,5.10
2018-05-17T16:54:35.302Z,5.00
2018-05-17T16:57:02.788Z,4.60
2018-05-17T16:59:30.312Z,4.53
2018-05-17T17:01:57.834Z,4.93
2018-05-17T17:04:25.372Z,5.23
2018-05-17T17:06:52.907Z,5.03
2018-05-17T17:09:21.137Z,5.17
2018-05-17T17:11:48.732Z,4.87
2018-05-17T17:14:16.242Z,4.73
2018-05-17T17:16:43.812Z,4.93
2018-05-17T17:19:11.305Z,4.10
2018-05-17T17:21:38.895Z,4.63
2018-05-17T17:24:06.451Z,4.37
2018-05-17T17:26:34.029Z,4.60
2018-05-17T17:29:01.523Z,4.20
2018-05-17T17:31:29.013Z,5.07
2018-05-17T17:33:56.489Z,4.60
2018-05-17T17:36:24.827Z,4.67
2018-05-17T17:38:52.214Z,4.50
2018-05-17T17:41:19.693Z,4.40
2018-05-17T17:43:47.237Z,3.97
2018-05-17T17:46:14.846Z,5.03
2018-05-17T17:48:42.288Z,4.63
2018-05-17T17:51:09.912Z,4.43
2018-05-17T17:53:38.229Z,4.20
2018-05-17T17:56:05.820Z,3.50
2018-05-17T17:58:33.308Z,3.63
2018-05-17T18:01:00.874Z,4.10
2018-05-17T18:03:28.349Z,4.10
2018-05-17T18:05:55.821Z,3.73
2018-05-17T18:08:23.317Z,3.53
2018-05-17T18:10:51.561Z,3.80
2018-05-17T18:13:19.123Z,3.77
2018-05-17T18:15:46.702Z,3.77
2018-05-17T18:18:15.030Z,3.60
2018-05-17T18:20:42.538Z,3.70
2018-05-17T18:23:10.140Z,3.17
2018-05-17T18:25:37.533Z,4.00
2018-05-17T18:28:05.012Z,3.67
2018-05-17T18:30:32.549Z,3.67
2018-05-17T18:33:00.033Z,3.53
2018-05-17T18:35:27.504Z,3.67
2018-05-17T18:37:54.992Z,3.80
2018-05-17T18:40:22.512Z,3.70
2018-05-17T18:42:50.063Z,3.57
2018-05-17T18:45:17.533Z,3.57
2018-05-17T18:47:45.878Z,3.40
2018-05-17T18:50:13.432Z,3.67
2018-05-17T18:52:40.997Z,3.80
2018-05-17T18:55:08.522Z,3.67
2018-05-17T18:57:35.982Z,4.03
2018-05-17T19:00:03.465Z,3.40
2018-05-17T19:02:31.700Z,3.47
2018-05-17T19:04:59.196Z,3.37
2018-05-17T19:07:26.672Z,3.70
2018-05-17T19:09:54.164Z,3.80
2018-05-17T19:12:22.403Z,3.47
2018-05-17T19:14:49.904Z,3.70
2018-05-17T19:17:18.818Z,4.07
2018-05-17T19:19:46.983Z,3.90
2018-05-17T19:22:14.472Z,3.80
2018-05-17T19:24:42.112Z,3.50
2018-05-17T19:27:09.725Z,3.90
2018-05-17T19:29:37.267Z,4.13
2018-05-17T19:32:04.732Z,3.70
2018-05-17T19:34:32.204Z,3.40
2018-05-17T19:36:59.822Z,4.37
2018-05-17T19:39:27.241Z,3.73
2018-05-17T19:41:54.717Z,4.20
2018-05-17T19:44:22.283Z,3.80
2018-05-17T19:46:49.796Z,4.30
2018-05-17T19:49:17.299Z,4.37
2018-05-17T19:51:44.789Z,3.83
2018-05-17T19:54:12.358Z,3.77
2018-05-17T19:56:39.961Z,3.90
2018-05-17T19:59:07.500Z,3.87
2018-05-17T20:01:34.968Z,4.00
2018-05-17T20:04:02.539Z,4.40
2018-05-17T20:06:30.031Z,4.00
2018-05-17T20:08:57.570Z,3.83
2018-05-17T20:11:25.110Z,3.43
2018-05-17T20:13:52.530Z,4.17
2018-05-17T20:16:20.096Z,3.73
2018-05-17T20:18:47.637Z,4.00
2018-05-17T20:21:15.082Z,3.83
2018-05-17T20:23:42.558Z,3.93
2018-05-17T20:26:10.037Z,3.97
2018-05-17T20:28:37.577Z,3.97
2018-05-17T20:31:05.049Z,3.67
2018-05-17T20:33:32.520Z,4.30
2018-05-17T20:36:00.066Z,4.40
2018-05-17T20:38:27.633Z,3.70
2018-05-17T20:40:55.109Z,3.97
2018-05-17T20:43:22.617Z,3.50
2018-05-17T20:45:50.089Z,3.53
2018-05-17T20:48:17.630Z,3.67
2018-05-17T20:50:45.215Z,4.03
2018-05-17T20:53:12.717Z,3.60
2018-05-17T20:55:40.237Z,3.93
2018-05-17T20:58:07.721Z,3.77
2018-05-17T21:00:35.301Z,3.90
2018-05-17T21:03:02.854Z,3.97
2018-05-17T21:05:30.336Z,3.70
2018-05-17T21:07:57.905Z,3.63
2018-05-17T21:10:25.447Z,3.87
2018-05-17T21:12:53.780Z,3.83
2018-05-17T21:15:21.310Z,3.33
2018-05-17T21:17:49.548Z,3.97
2018-05-17T21:20:17.088Z,3.80
2018-05-17T21:22:44.581Z,4.20
2018-05-17T21:25:12.145Z,4.00
2018-05-17T21:27:39.688Z,3.93
2018-05-17T21:30:07.171Z,3.40
2018-05-17T21:32:34.651Z,3.97
2018-05-17T21:35:02.232Z,3.77
2018-05-17T21:37:29.703Z,3.43
2018-05-17T21:39:57.256Z,3.90
2018-05-17T21:42:24.837Z,3.77
2018-05-17T21:44:52.330Z,3.70
2018-05-17T21:47:19.893Z,3.53
2018-05-17T21:49:47.444Z,3.60
2018-05-17T21:52:15.038Z,3.70
2018-05-17T21:54:42.612Z,3.10
2018-05-17T21:57:10.100Z,3.53
2018-05-17T21:59:37.589Z,3.80
2018-05-17T22:02:05.832Z,3.47
2018-05-17T22:04:33.392Z,3.67
2018-05-17T22:07:00.898Z,3.23
2018-05-17T22:09:28.379Z,3.50
2018-05-17T22:11:55.841Z,3.70
2018-05-17T22:14:23.321Z,3.70
2018-05-17T22:16:50.785Z,3.07
2018-05-17T22:19:18.313Z,3.60
2018-05-17T22:21:45.886Z,3.33
2018-05-17T22:24:13.367Z,3.40
2018-05-17T22:26:40.839Z,3.40
2018-05-17T22:29:08.398Z,3.20
2018-05-17T22:31:35.880Z,3.17
2018-05-17T22:34:03.438Z,3.20
2018-05-17T22:36:31.017Z,3.63
2018-05-17T22:38:58.621Z,3.00
2018-05-17T22:41:26.153Z,3.07
2018-05-17T22:43:53.625Z,3.20
2018-05-17T22:46:21.197Z,3.20
2018-05-17T22:48:48.768Z,3.47
2018-05-17T22:51:16.429Z,3.20
2018-05-17T22:53:44.653Z,3.13
2018-05-17T22:56:18.251Z,3.53
2018-05-17T22:58:45.830Z,3.13
2018-05-17T23:01:13.309Z,3.47
2018-05-17T23:03:40.797Z,3.23
2018-05-17T23:06:08.343Z,3.30
2018-05-17T23:08:35.801Z,3.23
2018-05-17T23:11:03.377Z,3.30
2018-05-17T23:13:30.865Z,3.03
2018-05-17T23:15:58.418Z,3.50
2018-05-17T23:18:25.894Z,3.07
2018-05-17T23:20:53.442Z,3.20
2018-05-17T23:23:21.748Z,3.43
2018-05-17T23:25:49.316Z,3.60
2018-05-17T23:28:16.892Z,3.03
2018-05-17T23:30:44.380Z,3.17
2018-05-17T23:33:11.859Z,3.20
2018-05-17T23:35:39.346Z,3.00
2018-05-17T23:38:06.872Z,3.00
2018-05-17T23:43:35.148Z,3.30
2018-05-17T23:46:02.618Z,3.33
2018-05-17T23:48:30.145Z,2.80
2018-05-17T23:50:57.697Z,3.20
2018-05-17T23:53:25.204Z,3.43
2018-05-17T23:55:52.685Z,3.30
2018-05-17T23:58:20.173Z,3.13
